createdAt,value
2017-12-04T00:01:00.589Z,27.30
2017-12-04T00:03:28.082Z,23.77
2017-12-04T00:05:55.588Z,24.17
2017-12-04T00:08:23.078Z,22.87
2017-12-04T00:10:50.585Z,21.05
2017-12-04T00:13:18.905Z,20.15
2017-12-04T00:15:46.394Z,21.73
2017-12-04T00:18:13.869Z,21.95
2017-12-04T00:20:41.382Z,20.95
2017-12-04T00:23:08.870Z,20.35
2017-12-04T00:25:36.356Z,24.73
2017-12-04T00:28:03.830Z,22.73
2017-12-04T00:30:32.097Z,20.98
2017-12-04T00:33:00.335Z,26.87
2017-12-04T00:35:27.846Z,21.00
2017-12-04T00:37:55.542Z,19.95
2017-12-04T00:40:23.078Z,20.73
2017-12-04T00:42:50.558Z,24.35
2017-12-04T00:45:18.062Z,20.42
2017-12-04T00:47:45.614Z,21.52
2017-12-04T00:50:13.133Z,21.98
2017-12-04T00:52:40.610Z,20.88
2017-12-04T00:55:08.117Z,20.95
2017-12-04T00:57:35.609Z,22.25
2017-12-04T01:00:03.100Z,22.52
2017-12-04T01:02:30.620Z,22.80
2017-12-04T01:04:58.109Z,21.17
2017-12-04T01:07:25.604Z,22.08
2017-12-04T01:09:53.121Z,21.75
2017-12-04T01:12:20.723Z,21.50
2017-12-04T01:14:49.000Z,18.20
2017-12-04T01:17:16.792Z,18.85
2017-12-04T01:19:44.291Z,18.42
2017-12-04T01:22:11.782Z,19.05
2017-12-04T01:24:40.066Z,20.83
2017-12-04T01:27:08.312Z,16.75
2017-12-04T01:29:35.826Z,21.25
2017-12-04T01:32:04.089Z,19.33
2017-12-04T01:34:31.569Z,21.55
2017-12-04T01:36:59.831Z,22.23
2017-12-04T01:39:27.296Z,22.00
2017-12-04T01:41:54.808Z,22.08
2017-12-04T01:44:22.282Z,20.05
2017-12-04T01:46:49.781Z,19.83
2017-12-04T01:49:18.062Z,23.40
2017-12-04T01:51:45.554Z,23.15
2017-12-04T01:54:13.901Z,21.62
2017-12-04T01:56:41.364Z,22.13
2017-12-04T01:59:09.642Z,22.80
2017-12-04T02:01:37.136Z,19.87
2017-12-04T02:04:05.372Z,22.52
2017-12-04T02:06:32.864Z,24.65
2017-12-04T02:09:00.356Z,20.23
2017-12-04T02:11:27.856Z,19.40
2017-12-04T02:13:55.358Z,22.62
2017-12-04T02:16:22.848Z,20.77
2017-12-04T02:18:51.126Z,22.17
2017-12-04T02:21:18.600Z,20.85
2017-12-04T02:23:46.084Z,18.75
2017-12-04T02:26:13.585Z,18.52
2017-12-04T02:28:41.088Z,18.73
2017-12-04T02:31:09.385Z,19.33
2017-12-04T02:33:37.624Z,17.60
2017-12-04T02:36:05.146Z,17.52
2017-12-04T02:38:32.657Z,19.30
2017-12-04T02:41:00.909Z,20.40
2017-12-04T02:43:28.527Z,26.77
2017-12-04T02:45:56.066Z,25.60
2017-12-04T02:48:23.552Z,18.80
2017-12-04T02:50:51.037Z,20.60
2017-12-04T02:53:18.504Z,22.13
2017-12-04T02:55:46.019Z,25.70
2017-12-04T02:58:13.529Z,20.85
2017-12-04T03:00:41.030Z,21.52
2017-12-04T03:03:08.585Z,24.63
2017-12-04T03:05:36.055Z,24.85
2017-12-04T03:08:03.551Z,25.70
2017-12-04T03:10:31.048Z,27.13
2017-12-04T03:12:58.552Z,23.98
2017-12-04T03:15:26.808Z,23.67
2017-12-04T03:17:54.321Z,33.30
2017-12-04T03:20:22.596Z,25.80
2017-12-04T03:22:50.249Z,27.55
2017-12-04T03:25:17.736Z,29.27
2017-12-04T03:27:45.471Z,31.92
2017-12-04T03:30:13.065Z,28.77
2017-12-04T03:32:40.573Z,27.27
2017-12-04T03:35:08.063Z,31.77
2017-12-04T03:37:35.610Z,31.25
2017-12-04T03:40:03.933Z,28.42
2017-12-04T03:42:32.190Z,30.40
2017-12-04T03:44:59.684Z,32.28
2017-12-04T03:47:27.190Z,31.35
2017-12-04T03:49:54.692Z,30.02
2017-12-04T03:52:24.843Z,30.15
2017-12-04T03:54:53.828Z,34.80
2017-12-04T03:57:22.118Z,30.58
2017-12-04T03:59:50.377Z,31.65
2017-12-04T04:02:17.874Z,30.50
2017-12-04T04:04:45.352Z,27.48
2017-12-04T04:07:12.857Z,28.20
2017-12-04T04:09:41.251Z,29.30
2017-12-04T04:12:08.763Z,31.35
2017-12-04T04:14:37.009Z,31.23
2017-12-04T04:17:04.609Z,37.38
2017-12-04T04:19:32.092Z,33.63
2017-12-04T04:21:59.626Z,30.42
2017-12-04T04:24:27.898Z,25.90
2017-12-04T04:26:55.412Z,39.90
2017-12-04T04:29:22.884Z,32.50
2017-12-04T04:31:51.170Z,28.50
2017-12-04T04:34:18.661Z,37.95
2017-12-04T04:36:46.895Z,31.17
2017-12-04T04:39:14.372Z,31.40
2017-12-04T04:41:41.878Z,34.47
2017-12-04T04:44:09.432Z,34.42
2017-12-04T04:46:36.951Z,35.30
2017-12-04T04:49:04.461Z,41.65
2017-12-04T04:51:31.943Z,32.28
2017-12-04T04:53:59.458Z,30.55
2017-12-04T04:56:27.732Z,30.45
2017-12-04T04:58:55.221Z,31.37
2017-12-04T05:01:23.493Z,35.63
2017-12-04T05:03:52.997Z,30.67
2017-12-04T05:06:20.532Z,33.28
2017-12-04T05:08:48.045Z,34.67
2017-12-04T05:11:15.533Z,32.38
2017-12-04T05:13:43.026Z,31.50
2017-12-04T05:16:10.528Z,34.53
2017-12-04T05:18:38.006Z,32.42
2017-12-04T05:21:05.647Z,30.90
2017-12-04T05:23:33.973Z,33.83
2017-12-04T05:26:02.278Z,35.35
2017-12-04T05:28:29.767Z,31.65
2017-12-04T05:30:57.319Z,35.53
2017-12-04T05:33:25.564Z,38.05
2017-12-04T05:35:53.548Z,38.60
2017-12-04T05:38:21.034Z,34.65
2017-12-04T05:40:48.514Z,30.70
2017-12-04T05:43:16.016Z,40.03
2017-12-04T05:45:43.493Z,43.60
2017-12-04T05:48:11.004Z,35.92
2017-12-04T05:50:38.518Z,36.47
2017-12-04T05:53:06.184Z,36.25
2017-12-04T05:55:34.446Z,39.05
2017-12-04T05:58:01.947Z,34.25
2017-12-04T06:00:29.455Z,40.95
2017-12-04T06:02:57.736Z,34.15
2017-12-04T06:05:25.261Z,41.72
2017-12-04T06:07:52.775Z,37.75
2017-12-04T06:10:20.412Z,40.05
2017-12-04T06:12:48.664Z,41.95
2017-12-04T06:15:16.247Z,41.55
2017-12-04T06:17:43.773Z,37.53
2017-12-04T06:20:11.261Z,37.58
2017-12-04T06:22:38.769Z,37.10
2017-12-04T06:25:06.286Z,34.88
2017-12-04T06:27:33.790Z,37.30
2017-12-04T06:30:01.298Z,35.75
2017-12-04T06:32:29.710Z,35.17
2017-12-04T06:34:57.206Z,41.15
2017-12-04T06:37:24.706Z,34.03
2017-12-04T06:39:52.221Z,36.42
2017-12-04T06:42:19.868Z,38.75
2017-12-04T06:44:48.611Z,35.13
2017-12-04T06:47:17.864Z,34.78
2017-12-04T06:49:45.427Z,31.75
2017-12-04T06:52:13.100Z,30.23
2017-12-04T06:54:40.695Z,28.35
2017-12-04T06:57:08.217Z,30.88
2017-12-04T06:59:35.716Z,31.20
2017-12-04T07:02:03.208Z,33.95
2017-12-04T07:04:30.712Z,28.02
2017-12-04T07:06:58.200Z,31.10
2017-12-04T07:09:25.774Z,28.58
2017-12-04T07:11:53.448Z,26.25
2017-12-04T07:14:20.967Z,31.12
2017-12-04T07:16:48.507Z,28.58
2017-12-04T07:19:16.011Z,25.80
2017-12-04T07:21:43.515Z,27.95
2017-12-04T07:24:11.011Z,25.62
2017-12-04T07:26:38.586Z,25.10
2017-12-04T07:29:06.146Z,30.98
2017-12-04T07:31:33.714Z,29.58
2017-12-04T07:34:01.207Z,23.45
2017-12-04T07:36:28.801Z,29.50
2017-12-04T07:38:57.118Z,24.20
2017-12-04T07:41:24.796Z,27.10
2017-12-04T07:43:52.299Z,24.80
2017-12-04T07:46:19.780Z,25.62
2017-12-04T07:48:47.282Z,41.60
2017-12-04T07:51:14.759Z,28.85
2017-12-04T07:53:42.277Z,28.95
2017-12-04T07:56:09.861Z,28.45
2017-12-04T07:58:37.511Z,29.92
2017-12-04T08:01:05.022Z,25.95
2017-12-04T08:03:32.565Z,30.10
2017-12-04T08:06:00.097Z,35.97
2017-12-04T08:08:27.616Z,31.92
2017-12-04T08:10:55.893Z,28.33
2017-12-04T08:13:23.384Z,32.13
2017-12-04T08:15:51.647Z,31.23
2017-12-04T08:18:19.374Z,22.83
2017-12-04T08:20:46.893Z,24.85
2017-12-04T08:23:14.397Z,27.70
2017-12-04T08:25:41.925Z,26.27
2017-12-04T08:28:09.410Z,22.70
2017-12-04T08:30:37.667Z,22.47
2017-12-04T08:33:05.216Z,21.52
2017-12-04T08:35:32.712Z,27.73
2017-12-04T08:38:00.369Z,24.87
2017-12-04T08:40:27.950Z,23.53
2017-12-04T08:42:55.446Z,21.50
2017-12-04T08:45:23.749Z,25.88
2017-12-04T08:47:52.022Z,20.20
2017-12-04T08:50:19.500Z,29.93
2017-12-04T08:52:47.005Z,21.37
2017-12-04T08:55:15.297Z,23.65
2017-12-04T08:57:43.050Z,18.77
2017-12-04T09:00:10.547Z,16.62
2017-12-04T09:02:38.159Z,26.33
2017-12-04T09:05:05.670Z,23.80
2017-12-04T09:07:33.313Z,25.07
2017-12-04T09:10:00.825Z,17.60
2017-12-04T09:12:29.077Z,24.63
2017-12-04T09:14:56.573Z,19.07
2017-12-04T09:17:24.069Z,27.43
2017-12-04T09:19:51.558Z,24.20
2017-12-04T09:22:19.051Z,17.67
2017-12-04T09:24:46.569Z,16.07
2017-12-04T09:27:14.055Z,18.63
2017-12-04T09:29:41.688Z,17.43
2017-12-04T09:32:09.204Z,15.23
2017-12-04T09:34:36.692Z,20.90
2017-12-04T09:37:04.342Z,16.13
2017-12-04T09:39:31.862Z,18.77
2017-12-04T09:41:59.340Z,16.10
2017-12-04T09:44:27.894Z,22.33
2017-12-04T09:46:55.525Z,14.43
2017-12-04T09:49:23.778Z,16.03
2017-12-04T09:51:51.397Z,17.15
2017-12-04T09:54:18.878Z,15.20
2017-12-04T09:56:47.150Z,17.53
2017-12-04T09:59:14.650Z,17.43
2017-12-04T10:01:42.316Z,15.90
2017-12-04T10:04:09.790Z,15.27
2017-12-04T10:06:37.274Z,21.07
2017-12-04T10:09:04.864Z,16.63
2017-12-04T10:11:32.357Z,18.07
2017-12-04T10:13:59.860Z,28.40
2017-12-04T10:16:27.348Z,21.30
2017-12-04T10:18:54.873Z,18.70
2017-12-04T10:21:22.483Z,20.87
2017-12-04T10:23:50.005Z,20.73
2017-12-04T10:26:17.537Z,17.40
2017-12-04T10:28:45.058Z,21.07
2017-12-04T10:31:12.566Z,23.90
2017-12-04T10:33:40.070Z,19.83
2017-12-04T10:36:08.378Z,22.20
2017-12-04T10:38:35.893Z,26.70
2017-12-04T10:41:03.363Z,20.47
2017-12-04T10:43:30.932Z,20.60
2017-12-04T10:45:58.407Z,19.50
2017-12-04T10:48:26.766Z,20.60
2017-12-04T10:50:54.258Z,17.00
2017-12-04T10:53:21.769Z,21.57
2017-12-04T10:55:50.017Z,17.37
2017-12-04T10:58:17.515Z,17.00
2017-12-04T11:00:45.014Z,15.53
2017-12-04T11:03:12.562Z,19.23
2017-12-04T11:05:41.125Z,25.43
2017-12-04T11:08:09.379Z,18.03
2017-12-04T11:10:36.891Z,18.17
2017-12-04T11:13:04.376Z,16.47
2017-12-04T11:15:31.932Z,15.03
2017-12-04T11:17:59.435Z,19.03
2017-12-04T11:20:27.134Z,16.60
2017-12-04T11:22:54.778Z,21.63
2017-12-04T11:25:22.288Z,18.70
2017-12-04T11:27:49.788Z,15.60
2017-12-04T11:30:17.329Z,18.40
2017-12-04T11:32:44.888Z,15.60
2017-12-04T11:35:13.153Z,15.67
2017-12-04T11:37:40.784Z,15.30
2017-12-04T11:40:08.303Z,16.57
2017-12-04T11:42:35.925Z,15.93
2017-12-04T11:45:04.169Z,18.33
2017-12-04T11:47:31.682Z,16.70
2017-12-04T11:49:59.311Z,18.47
2017-12-04T11:52:26.800Z,17.97
2017-12-04T11:54:54.290Z,14.13
2017-12-04T11:57:21.807Z,15.13
2017-12-04T11:59:49.404Z,14.70
2017-12-04T12:02:17.005Z,14.10
2017-12-04T12:04:44.617Z,13.37
2017-12-04T12:07:12.088Z,12.27
2017-12-04T12:09:40.462Z,15.87
2017-12-04T12:12:08.176Z,13.57
2017-12-04T12:14:36.435Z,13.10
2017-12-04T12:17:04.079Z,10.30
2017-12-04T12:19:31.618Z,14.40
2017-12-04T12:21:59.197Z,13.80
2017-12-04T12:24:26.698Z,14.87
2017-12-04T12:26:54.202Z,10.83
2017-12-04T12:29:21.685Z,13.83
2017-12-04T12:31:49.942Z,13.77
2017-12-04T12:34:17.432Z,12.43
2017-12-04T12:36:44.912Z,16.17
2017-12-04T12:39:12.397Z,14.17
2017-12-04T12:41:39.981Z,12.73
2017-12-04T12:44:07.491Z,12.90
2017-12-04T12:46:35.742Z,11.70
2017-12-04T12:49:03.252Z,17.13
2017-12-04T12:51:30.789Z,13.40
2017-12-04T12:53:58.306Z,10.80
2017-12-04T12:56:25.807Z,12.53
2017-12-04T12:58:53.284Z,13.20
2017-12-04T13:01:20.889Z,13.90
2017-12-04T13:03:48.356Z,14.00
2017-12-04T13:06:15.912Z,15.63
2017-12-04T13:08:43.424Z,18.73
2017-12-04T13:11:11.231Z,16.53
2017-12-04T13:13:38.729Z,16.10
2017-12-04T13:16:06.229Z,15.80
2017-12-04T13:18:33.730Z,16.47
2017-12-04T13:21:01.210Z,18.43
2017-12-04T13:23:29.513Z,21.10
2017-12-04T13:25:57.015Z,15.20
2017-12-04T13:28:24.618Z,16.57
2017-12-04T13:30:52.093Z,15.97
2017-12-04T13:36:35.864Z,25.53
2017-12-04T13:39:03.372Z,21.73
2017-12-04T13:41:30.904Z,21.07
2017-12-04T13:43:59.174Z,21.90
2017-12-04T13:46:26.808Z,17.87
2017-12-04T13:48:54.299Z,21.30
2017-12-04T13:51:21.819Z,21.50
2017-12-04T13:53:49.353Z,21.07
2017-12-04T13:56:16.893Z,21.27
2017-12-04T13:58:44.459Z,23.03
2017-12-04T14:01:11.973Z,25.17
2017-12-04T14:03:40.355Z,20.50
2017-12-04T14:06:08.622Z,19.97
2017-12-04T14:08:36.157Z,21.10
2017-12-04T14:11:03.631Z,21.57
2017-12-04T14:15:53.394Z,21.23
2017-12-04T14:18:20.968Z,19.97
2017-12-04T14:20:48.445Z,18.90
2017-12-04T14:23:16.062Z,21.60
2017-12-04T14:25:43.568Z,24.35
2017-12-04T14:28:11.083Z,23.00
2017-12-04T14:30:38.585Z,31.77
2017-12-04T14:33:06.108Z,29.33
2017-12-04T14:35:33.581Z,22.73
2017-12-04T14:38:01.857Z,22.47
2017-12-04T14:40:30.515Z,25.30
2017-12-04T14:42:58.681Z,25.43
2017-12-04T14:45:26.965Z,28.50
2017-12-04T14:47:54.458Z,25.20
2017-12-04T14:50:22.708Z,24.27
2017-12-04T14:52:50.200Z,29.77
2017-12-04T14:55:17.697Z,26.50
2017-12-04T14:57:45.222Z,22.30
2017-12-04T15:00:13.469Z,22.93
2017-12-04T15:02:41.277Z,24.63
2017-12-04T15:05:08.756Z,23.97
2017-12-04T15:07:36.505Z,28.03
2017-12-04T15:10:04.777Z,24.73
2017-12-04T15:12:33.047Z,19.67
2017-12-04T15:15:00.557Z,24.30
2017-12-04T15:17:28.892Z,24.50
2017-12-04T15:19:56.400Z,25.30
2017-12-04T15:22:23.956Z,26.77
2017-12-04T15:24:51.626Z,26.83
2017-12-04T15:27:19.112Z,27.77
2017-12-04T15:29:46.641Z,22.00
2017-12-04T15:32:14.168Z,22.97
2017-12-04T15:34:42.544Z,24.17
2017-12-04T15:37:10.097Z,19.57
2017-12-04T15:39:37.612Z,22.47
2017-12-04T15:42:05.117Z,20.00
2017-12-04T15:44:33.465Z,22.53
2017-12-04T15:47:00.953Z,26.33
2017-12-04T15:49:28.752Z,26.17
2017-12-04T15:51:56.278Z,21.77
2017-12-04T15:54:24.571Z,20.40
2017-12-04T15:56:52.836Z,23.17
2017-12-04T15:59:20.375Z,26.60
2017-12-04T16:01:48.012Z,20.93
2017-12-04T16:04:15.566Z,25.40
2017-12-04T16:06:43.239Z,24.40
2017-12-04T16:09:10.759Z,39.17
2017-12-04T16:11:38.290Z,24.07
2017-12-04T16:14:06.565Z,27.43
2017-12-04T16:16:34.386Z,25.60
2017-12-04T16:19:01.973Z,24.53
2017-12-04T16:21:30.279Z,25.60
2017-12-04T16:23:57.806Z,26.27
2017-12-04T16:26:25.317Z,22.37
2017-12-04T16:28:52.800Z,26.03
2017-12-04T16:31:20.322Z,21.83
2017-12-04T16:33:47.901Z,25.10
2017-12-04T16:36:15.403Z,21.90
2017-12-04T16:38:42.917Z,26.73
2017-12-04T16:41:10.404Z,25.58
2017-12-04T16:43:38.076Z,23.97
2017-12-04T16:46:05.633Z,23.87
2017-12-04T16:48:33.221Z,27.70
2017-12-04T16:51:00.770Z,29.13
2017-12-04T16:53:29.067Z,26.03
2017-12-04T16:55:57.450Z,21.73
2017-12-04T16:58:24.965Z,20.80
2017-12-04T17:00:53.216Z,29.57
2017-12-04T17:03:20.697Z,24.80
2017-12-04T17:05:48.222Z,22.47
2017-12-04T17:08:16.493Z,25.70
2017-12-04T17:10:43.986Z,24.07
2017-12-04T17:13:11.592Z,29.77
2017-12-04T17:15:39.860Z,24.80
2017-12-04T17:18:07.336Z,22.83
2017-12-04T17:20:35.078Z,22.03
2017-12-04T17:23:03.508Z,23.00
2017-12-04T17:25:31.209Z,24.67
2017-12-04T17:27:58.704Z,27.80
2017-12-04T17:30:26.324Z,20.90
2017-12-04T17:32:54.576Z,19.20
2017-12-04T17:35:22.085Z,23.90
2017-12-04T17:37:49.712Z,20.07
2017-12-04T17:40:17.966Z,29.17
2017-12-04T17:42:45.615Z,26.90
2017-12-04T17:45:13.269Z,23.13
2017-12-04T17:47:41.657Z,29.67
2017-12-04T17:50:09.160Z,27.40
2017-12-04T17:52:37.451Z,21.60
2017-12-04T17:55:05.022Z,24.87
2017-12-04T17:57:32.495Z,25.00
2017-12-04T18:00:00.016Z,23.90
2017-12-04T18:02:28.302Z,25.30
2017-12-04T18:04:55.845Z,24.90
2017-12-04T18:07:23.391Z,26.00
2017-12-04T18:09:51.660Z,28.90
2017-12-04T18:12:19.143Z,26.07
2017-12-04T18:14:47.417Z,26.17
2017-12-04T18:17:14.952Z,31.33
2017-12-04T18:19:42.516Z,31.40
2017-12-04T18:22:10.030Z,28.47
2017-12-04T18:24:38.283Z,29.67
2017-12-04T18:27:06.136Z,26.83
2017-12-04T18:29:33.846Z,28.23
2017-12-04T18:32:01.502Z,27.60
2017-12-04T18:34:29.137Z,32.83
2017-12-04T18:36:57.531Z,31.60
2017-12-04T18:39:25.037Z,28.63
2017-12-04T18:41:52.521Z,26.93
2017-12-04T18:44:20.043Z,31.70
2017-12-04T18:46:48.364Z,34.87
2017-12-04T18:49:15.871Z,26.47
2017-12-04T18:51:43.382Z,27.80
2017-12-04T18:54:10.984Z,37.33
2017-12-04T18:56:39.359Z,33.77
2017-12-04T18:59:06.874Z,30.13
2017-12-04T19:01:35.289Z,35.40
2017-12-04T19:04:02.845Z,30.10
2017-12-04T19:06:30.348Z,32.13
2017-12-04T19:08:58.683Z,33.00
2017-12-04T19:11:27.101Z,31.30
2017-12-04T19:13:54.607Z,29.83
2017-12-04T19:16:22.245Z,29.83
2017-12-04T19:18:49.805Z,30.03
2017-12-04T19:21:17.508Z,32.33
2017-12-04T19:23:45.764Z,38.27
2017-12-04T19:26:13.335Z,27.00
2017-12-04T19:28:41.135Z,32.27
2017-12-04T19:31:08.691Z,36.97
2017-12-04T19:33:36.572Z,33.83
2017-12-04T19:36:04.062Z,36.40
2017-12-04T19:38:31.776Z,31.93
2017-12-04T19:40:59.281Z,25.97
2017-12-04T19:43:26.853Z,30.60
2017-12-04T19:45:54.326Z,30.33
2017-12-04T19:48:21.803Z,34.50
2017-12-04T19:50:49.349Z,29.43
2017-12-04T19:53:16.928Z,25.97
2017-12-04T19:55:45.191Z,28.83
2017-12-04T19:58:12.868Z,28.85
2017-12-04T20:00:40.437Z,31.70
2017-12-04T20:03:07.921Z,33.37
2017-12-04T20:05:35.546Z,32.13
2017-12-04T20:08:03.798Z,30.77
2017-12-04T20:10:31.306Z,31.13
2017-12-04T20:12:58.869Z,35.85
2017-12-04T20:15:26.372Z,35.87
2017-12-04T20:17:53.946Z,34.43
2017-12-04T20:20:21.468Z,30.77
2017-12-04T20:22:49.130Z,31.60
2017-12-04T20:25:16.609Z,37.43
2017-12-04T20:27:44.126Z,29.67
2017-12-04T20:30:11.596Z,35.70
2017-12-04T20:32:39.117Z,37.17
2017-12-04T20:35:07.476Z,35.07
2017-12-04T20:37:36.504Z,32.17
2017-12-04T20:40:04.009Z,31.17
2017-12-04T20:42:31.483Z,34.60
2017-12-04T20:44:59.029Z,30.70
2017-12-04T20:47:27.399Z,36.93
2017-12-04T20:49:55.061Z,39.00
2017-12-04T20:52:22.721Z,33.30
2017-12-04T20:54:50.285Z,31.20
2017-12-04T20:57:18.571Z,35.13
2017-12-04T20:59:46.112Z,37.37
2017-12-04T21:02:13.613Z,37.97
2017-12-04T21:04:41.163Z,34.13
2017-12-04T21:07:08.831Z,33.27
2017-12-04T21:12:35.922Z,30.70
2017-12-04T21:15:15.416Z,27.40
2017-12-04T21:17:42.948Z,29.67
2017-12-04T21:20:11.195Z,28.40
2017-12-04T21:22:38.770Z,30.80
2017-12-04T21:25:06.309Z,27.83
2017-12-04T21:27:33.841Z,28.30
2017-12-04T21:30:01.349Z,28.07
2017-12-04T21:32:28.907Z,30.63
2017-12-04T21:34:56.462Z,30.10
2017-12-04T21:37:25.501Z,29.47
2017-12-04T21:39:54.039Z,29.97
2017-12-04T21:42:21.503Z,30.60
2017-12-04T21:44:49.789Z,35.63
2017-12-04T21:47:17.494Z,33.67
2017-12-04T21:49:44.997Z,28.90
2017-12-04T21:52:13.441Z,31.30
2017-12-04T21:54:41.191Z,26.63
2017-12-04T21:57:08.698Z,33.87
2017-12-04T21:59:36.968Z,28.83
2017-12-04T22:02:05.241Z,30.37
2017-12-04T22:04:33.879Z,30.10
2017-12-04T22:07:01.661Z,33.00
2017-12-04T22:09:29.520Z,26.10
2017-12-04T22:11:57.017Z,32.73
2017-12-04T22:14:25.280Z,30.77
2017-12-04T22:16:52.781Z,29.97
2017-12-04T22:19:20.286Z,31.37
2017-12-04T22:21:47.804Z,25.43
2017-12-04T22:24:15.273Z,33.27
2017-12-04T22:26:42.935Z,32.67
2017-12-04T22:29:10.430Z,37.33
2017-12-04T22:31:38.683Z,36.77
2017-12-04T22:34:06.222Z,34.50
2017-12-04T22:36:33.706Z,30.70
2017-12-04T22:39:01.306Z,31.50
2017-12-04T22:41:28.780Z,41.10
2017-12-04T22:43:56.284Z,28.53
2017-12-04T22:46:23.767Z,33.83
2017-12-04T22:48:51.559Z,31.23
2017-12-04T22:51:20.116Z,35.00
2017-12-04T22:53:47.642Z,36.03
2017-12-04T22:56:15.122Z,32.90
2017-12-04T22:58:42.713Z,29.70
2017-12-04T23:01:10.248Z,33.37
2017-12-04T23:03:37.744Z,36.60
2017-12-04T23:06:05.210Z,36.87
2017-12-04T23:08:32.691Z,32.43
2017-12-04T23:11:00.953Z,28.73
2017-12-04T23:13:28.423Z,32.37
2017-12-04T23:15:56.803Z,28.83
2017-12-04T23:18:26.065Z,28.17
2017-12-04T23:20:53.532Z,25.93
2017-12-04T23:23:21.023Z,28.53
2017-12-04T23:25:49.259Z,35.67
2017-12-04T23:28:16.800Z,29.00
2017-12-04T23:30:44.283Z,29.20
2017-12-04T23:33:11.793Z,30.67
2017-12-04T23:35:40.047Z,29.87
2017-12-04T23:38:07.550Z,32.20
2017-12-04T23:40:35.029Z,33.77
2017-12-04T23:43:03.306Z,30.30
2017-12-04T23:45:30.792Z,31.80
2017-12-04T23:47:58.272Z,29.47
2017-12-04T23:50:25.829Z,33.13
2017-12-04T23:52:53.312Z,34.30
2017-12-04T23:55:20.977Z,32.37
2017-12-04T23:57:49.232Z,25.77
